sensor_id;sensor_type;location;lat;lon;timestamp;pressure;altitude;pressure_sealevel;temperature;humidity
29935;BME280;19905;53.370;-6.314;2023-08-30T00:01:21;100724.44;;;11.71;100.00
29935;BME280;19905;53.370;-6.314;2023-08-30T00:03:50;100717.47;;;11.70;100.00
29935;BME280;19905;53.370;-6.314;2023-08-30T00:06:21;100724.31;;;11.73;100.00
29935;BME280;19905;53.370;-6.314;2023-08-30T00:08:50;100725.56;;;11.68;100.00
29935;BME280;19905;53.370;-6.314;2023-08-30T00:11:19;100723.75;;;11.69;100.00
29935;BME280;19905;53.370;-6.314;2023-08-30T00:13:50;100724.69;;;11.68;100.00
29935;BME280;19905;53.370;-6.314;2023-08-30T00:16:22;100717.72;;;11.67;100.00
29935;BME280;19905;53.370;-6.314;2023-08-30T00:18:50;100721.34;;;11.66;100.00
29935;BME280;19905;53.370;-6.314;2023-08-30T00:21:20;100719.66;;;11.65;100.00
29935;BME280;19905;53.370;-6.314;2023-08-30T00:23:49;100729.28;;;11.66;100.00
29935;BME280;19905;53.370;-6.314;2023-08-30T00:26:17;100725.78;;;11.65;100.00
29935;BME280;19905;53.370;-6.314;2023-08-30T00:28:46;100718.81;;;11.64;100.00
29935;BME280;19905;53.370;-6.314;2023-08-30T00:31:20;100720.50;;;11.65;100.00
29935;BME280;19905;53.370;-6.314;2023-08-30T00:33:49;100722.69;;;11.60;100.00
29935;BME280;19905;53.370;-6.314;2023-08-30T00:36:18;100724.50;;;11.60;100.00
29935;BME280;19905;53.370;-6.314;2023-08-30T00:38:48;100721.25;;;11.56;100.00
29935;BME280;19905;53.370;-6.314;2023-08-30T00:41:17;100723.16;;;11.54;100.00
29935;BME280;19905;53.370;-6.314;2023-08-30T00:43:46;100715.34;;;11.53;100.00
29935;BME280;19905;53.370;-6.314;2023-08-30T00:46:16;100712.69;;;11.53;100.00
29935;BME280;19905;53.370;-6.314;2023-08-30T00:48:45;100716.31;;;11.52;100.00
29935;BME280;19905;53.370;-6.314;2023-08-30T00:51:15;100710.19;;;11.51;100.00
29935;BME280;19905;53.370;-6.314;2023-08-30T00:53:45;100713.06;;;11.48;100.00
29935;BME280;19905;53.370;-6.314;2023-08-30T00:56:17;100706.81;;;11.49;100.00
29935;BME280;19905;53.370;-6.314;2023-08-30T00:58:47;100706.94;;;11.48;100.00
29935;BME280;19905;53.370;-6.314;2023-08-30T01:01:21;100701.78;;;11.46;100.00
29935;BME280;19905;53.370;-6.314;2023-08-30T01:03:50;100704.44;;;11.46;100.00
29935;BME280;19905;53.370;-6.314;2023-08-30T01:06:20;100711.63;;;11.44;100.00
29935;BME280;19905;53.370;-6.314;2023-08-30T01:08:51;100705.28;;;11.47;100.00
29935;BME280;19905;53.370;-6.314;2023-08-30T01:11:29;100700.81;;;11.47;100.00
29935;BME280;19905;53.370;-6.314;2023-08-30T01:14:03;100702.84;;;11.55;100.00
29935;BME280;19905;53.370;-6.314;2023-08-30T01:16:36;100706.06;;;11.58;100.00
29935;BME280;19905;53.370;-6.314;2023-08-30T01:19:26;100706.91;;;11.59;100.00
29935;BME280;19905;53.370;-6.314;2023-08-30T01:22:05;100698.88;;;11.60;100.00
29935;BME280;19905;53.370;-6.314;2023-08-30T01:24:45;100698.03;;;11.60;100.00
29935;BME280;19905;53.370;-6.314;2023-08-30T01:27:19;100705.97;;;11.60;100.00
29935;BME280;19905;53.370;-6.314;2023-08-30T01:29:50;100710.28;;;11.61;100.00
29935;BME280;19905;53.370;-6.314;2023-08-30T01:32:23;100704.03;;;11.62;100.00
29935;BME280;19905;53.370;-6.314;2023-08-30T01:34:56;100690.94;;;11.60;100.00
29935;BME280;19905;53.370;-6.314;2023-08-30T01:37:28;100696.81;;;11.64;100.00
29935;BME280;19905;53.370;-6.314;2023-08-30T01:39:59;100690.66;;;11.63;100.00
29935;BME280;19905;53.370;-6.314;2023-08-30T01:42:38;100687.06;;;11.64;100.00
29935;BME280;19905;53.370;-6.314;2023-08-30T01:45:09;100690.56;;;11.65;100.00
29935;BME280;19905;53.370;-6.314;2023-08-30T01:47:42;100686.81;;;11.67;100.00
29935;BME280;19905;53.370;-6.314;2023-08-30T01:50:12;100682.34;;;11.68;100.00
29935;BME280;19905;53.370;-6.314;2023-08-30T01:52:41;100687.91;;;11.65;100.00
29935;BME280;19905;53.370;-6.314;2023-08-30T01:55:11;100683.09;;;11.70;100.00
29935;BME280;19905;53.370;-6.314;2023-08-30T01:57:43;100675.84;;;11.72;100.00
29935;BME280;19905;53.370;-6.314;2023-08-30T02:00:13;100674.91;;;11.73;100.00
29935;BME280;19905;53.370;-6.314;2023-08-30T02:02:43;100672.13;;;11.75;100.00
29935;BME280;19905;53.370;-6.314;2023-08-30T02:05:13;100684.38;;;11.76;100.00
29935;BME280;19905;53.370;-6.314;2023-08-30T02:07:48;100676.31;;;11.77;100.00
29935;BME280;19905;53.370;-6.314;2023-08-30T02:10:22;100676.19;;;11.79;100.00
29935;BME280;19905;53.370;-6.314;2023-08-30T02:12:56;100682.97;;;11.83;100.00
29935;BME280;19905;53.370;-6.314;2023-08-30T02:15:27;100677.38;;;11.86;100.00
29935;BME280;19905;53.370;-6.314;2023-08-30T02:17:56;100680.88;;;11.86;100.00
29935;BME280;19905;53.370;-6.314;2023-08-30T02:20:29;100679.94;;;11.87;100.00
29935;BME280;19905;53.370;-6.314;2023-08-30T02:22:59;100679.09;;;11.87;100.00
29935;BME280;19905;53.370;-6.314;2023-08-30T02:25:38;100683.53;;;11.86;100.00
29935;BME280;19905;53.370;-6.314;2023-08-30T02:28:08;100680.19;;;11.84;100.00
29935;BME280;19905;53.370;-6.314;2023-08-30T02:30:37;100679.47;;;11.82;100.00
29935;BME280;19905;53.370;-6.314;2023-08-30T02:33:06;100679.69;;;11.79;100.00
29935;BME280;19905;53.370;-6.314;2023-08-30T02:35:35;100676.56;;;11.74;100.00
29935;BME280;19905;53.370;-6.314;2023-08-30T02:38:03;100675.16;;;11.70;100.00
29935;BME280;19905;53.370;-6.314;2023-08-30T02:40:34;100676.34;;;11.66;100.00
29935;BME280;19905;53.370;-6.314;2023-08-30T02:43:12;100678.16;;;11.65;100.00
29935;BME280;19905;53.370;-6.314;2023-08-30T02:45:43;100685.63;;;11.60;100.00
29935;BME280;19905;53.370;-6.314;2023-08-30T02:48:12;100677.25;;;11.55;100.00
29935;BME280;19905;53.370;-6.314;2023-08-30T02:50:40;100690.19;;;11.58;100.00
29935;BME280;19905;53.370;-6.314;2023-08-30T02:53:10;100679.03;;;11.55;100.00
29935;BME280;19905;53.370;-6.314;2023-08-30T02:55:38;100680.00;;;11.54;100.00
29935;BME280;19905;53.370;-6.314;2023-08-30T02:58:09;100685.41;;;11.52;100.00
29935;BME280;19905;53.370;-6.314;2023-08-30T03:00:42;100683.00;;;11.49;100.00
29935;BME280;19905;53.370;-6.314;2023-08-30T03:03:10;100689.25;;;11.48;100.00
29935;BME280;19905;53.370;-6.314;2023-08-30T03:05:40;100681.47;;;11.47;100.00
29935;BME280;19905;53.370;-6.314;2023-08-30T03:08:10;100681.69;;;11.43;100.00
29935;BME280;19905;53.370;-6.314;2023-08-30T03:10:39;100678.81;;;11.47;100.00
29935;BME280;19905;53.370;-6.314;2023-08-30T03:13:09;100680.72;;;11.44;100.00
29935;BME280;19905;53.370;-6.314;2023-08-30T03:15:37;100683.63;;;11.41;100.00
29935;BME280;19905;53.370;-6.314;2023-08-30T03:18:09;100686.38;;;11.40;100.00
29935;BME280;19905;53.370;-6.314;2023-08-30T03:20:40;100683.63;;;11.41;100.00
29935;BME280;19905;53.370;-6.314;2023-08-30T03:23:14;100675.94;;;11.38;100.00
29935;BME280;19905;53.370;-6.314;2023-08-30T03:25:45;100668.84;;;11.39;100.00
29935;BME280;19905;53.370;-6.314;2023-08-30T03:28:14;100671.72;;;11.36;100.00
29935;BME280;19905;53.370;-6.314;2023-08-30T03:30:49;100668.00;;;11.38;100.00
29935;BME280;19905;53.370;-6.314;2023-08-30T03:33:20;100666.44;;;11.36;100.00
29935;BME280;19905;53.370;-6.314;2023-08-30T03:35:48;100660.44;;;11.34;100.00
29935;BME280;19905;53.370;-6.314;2023-08-30T03:38:17;100667.69;;;11.32;100.00
29935;BME280;19905;53.370;-6.314;2023-08-30T03:40:53;100672.97;;;11.32;100.00
29935;BME280;19905;53.370;-6.314;2023-08-30T03:43:22;100678.34;;;11.30;100.00
29935;BME280;19905;53.370;-6.314;2023-08-30T03:45:51;100674.16;;;11.28;100.00
29935;BME280;19905;53.370;-6.314;2023-08-30T03:48:25;100675.84;;;11.29;100.00
29935;BME280;19905;53.370;-6.314;2023-08-30T03:50:54;100681.13;;;11.29;100.00
29935;BME280;19905;53.370;-6.314;2023-08-30T03:53:23;100682.66;;;11.31;100.00
29935;BME280;19905;53.370;-6.314;2023-08-30T03:55:53;100684.25;;;11.34;100.00
29935;BME280;19905;53.370;-6.314;2023-08-30T03:58:23;100685.09;;;11.34;100.00
29935;BME280;19905;53.370;-6.314;2023-08-30T04:00:53;100689.31;;;11.37;100.00
29935;BME280;19905;53.370;-6.314;2023-08-30T04:03:22;100693.00;;;11.34;100.00
29935;BME280;19905;53.370;-6.314;2023-08-30T04:05:56;100694.47;;;11.38;100.00
29935;BME280;19905;53.370;-6.314;2023-08-30T04:08:25;100693.63;;;11.38;100.00
29935;BME280;19905;53.370;-6.314;2023-08-30T04:11:00;100684.72;;;11.39;100.00
29935;BME280;19905;53.370;-6.314;2023-08-30T04:13:34;100682.19;;;11.37;100.00
29935;BME280;19905;53.370;-6.314;2023-08-30T04:16:03;100686.88;;;11.34;100.00
29935;BME280;19905;53.370;-6.314;2023-08-30T04:18:33;100681.47;;;11.35;100.00
29935;BME280;19905;53.370;-6.314;2023-08-30T04:21:04;100699.13;;;11.35;100.00
29935;BME280;19905;53.370;-6.314;2023-08-30T04:23:35;100693.97;;;11.33;100.00
29935;BME280;19905;53.370;-6.314;2023-08-30T04:26:03;100690.59;;;11.31;100.00
29935;BME280;19905;53.370;-6.314;2023-08-30T04:28:34;100678.25;;;11.32;100.00
29935;BME280;19905;53.370;-6.314;2023-08-30T04:31:03;100684.00;;;11.26;100.00
29935;BME280;19905;53.370;-6.314;2023-08-30T04:33:32;100677.28;;;11.22;100.00
29935;BME280;19905;53.370;-6.314;2023-08-30T04:36:03;100682.94;;;11.17;100.00
29935;BME280;19905;53.370;-6.314;2023-08-30T04:38:31;100677.31;;;11.10;100.00
29935;BME280;19905;53.370;-6.314;2023-08-30T04:41:07;100678.38;;;11.08;100.00
29935;BME280;19905;53.370;-6.314;2023-08-30T04:43:40;100681.16;;;11.06;100.00
29935;BME280;19905;53.370;-6.314;2023-08-30T04:46:08;100681.28;;;11.05;100.00
29935;BME280;19905;53.370;-6.314;2023-08-30T04:48:37;100679.09;;;10.99;100.00
29935;BME280;19905;53.370;-6.314;2023-08-30T04:51:08;100668.78;;;10.96;100.00
29935;BME280;19905;53.370;-6.314;2023-08-30T04:53:38;100679.59;;;10.92;100.00
29935;BME280;19905;53.370;-6.314;2023-08-30T04:56:11;100679.72;;;10.91;100.00
29935;BME280;19905;53.370;-6.314;2023-08-30T04:58:43;100683.31;;;10.90;100.00
29935;BME280;19905;53.370;-6.314;2023-08-30T05:01:13;100685.09;;;10.89;100.00
29935;BME280;19905;53.370;-6.314;2023-08-30T05:03:46;100687.28;;;10.84;100.00
29935;BME280;19905;53.370;-6.314;2023-08-30T05:06:26;100695.81;;;10.88;100.00
29935;BME280;19905;53.370;-6.314;2023-08-30T05:08:54;100690.88;;;10.83;100.00
29935;BME280;19905;53.370;-6.314;2023-08-30T05:11:23;100700.59;;;10.83;100.00
29935;BME280;19905;53.370;-6.314;2023-08-30T05:13:51;100697.00;;;10.84;100.00
29935;BME280;19905;53.370;-6.314;2023-08-30T05:16:26;100691.84;;;10.82;100.00
29935;BME280;19905;53.370;-6.314;2023-08-30T05:18:57;100701.56;;;10.82;100.00
29935;BME280;19905;53.370;-6.314;2023-08-30T05:21:27;100693.75;;;10.80;100.00
29935;BME280;19905;53.370;-6.314;2023-08-30T05:23:56;100700.97;;;10.78;100.00
29935;BME280;19905;53.370;-6.314;2023-08-30T05:26:24;100702.88;;;10.76;100.00
29935;BME280;19905;53.370;-6.314;2023-08-30T05:28:54;100702.78;;;10.78;100.00
29935;BME280;19905;53.370;-6.314;2023-08-30T05:31:24;100696.75;;;10.76;100.00
29935;BME280;19905;53.370;-6.314;2023-08-30T05:33:54;100704.66;;;10.76;100.00
29935;BME280;19905;53.370;-6.314;2023-08-30T05:36:22;100709.13;;;10.75;100.00
29935;BME280;19905;53.370;-6.314;2023-08-30T05:38:52;100707.22;;;10.77;100.00
29935;BME280;19905;53.370;-6.314;2023-08-30T05:41:22;100703.75;;;10.77;100.00
29935;BME280;19905;53.370;-6.314;2023-08-30T05:43:51;100701.94;;;10.77;100.00
29935;BME280;19905;53.370;-6.314;2023-08-30T05:46:20;100697.50;;;10.78;100.00
29935;BME280;19905;53.370;-6.314;2023-08-30T05:48:51;100686.91;;;10.78;100.00
29935;BME280;19905;53.370;-6.314;2023-08-30T05:51:21;100693.25;;;10.75;100.00
29935;BME280;19905;53.370;-6.314;2023-08-30T05:53:52;100700.22;;;10.76;100.00
29935;BME280;19905;53.370;-6.314;2023-08-30T05:56:20;100706.25;;;10.78;100.00
29935;BME280;19905;53.370;-6.314;2023-08-30T05:58:51;100700.75;;;10.81;100.00
29935;BME280;19905;53.370;-6.314;2023-08-30T06:01:21;100699.78;;;10.82;100.00
29935;BME280;19905;53.370;-6.314;2023-08-30T06:03:49;100706.72;;;10.83;100.00
29935;BME280;19905;53.370;-6.314;2023-08-30T06:06:18;100703.88;;;10.86;100.00
29935;BME280;19905;53.370;-6.314;2023-08-30T06:08:47;100709.72;;;10.90;100.00
29935;BME280;19905;53.370;-6.314;2023-08-30T06:11:18;100707.47;;;10.97;100.00
29935;BME280;19905;53.370;-6.314;2023-08-30T06:13:48;100710.59;;;11.02;100.00
29935;BME280;19905;53.370;-6.314;2023-08-30T06:16:18;100703.88;;;11.09;100.00
29935;BME280;19905;53.370;-6.314;2023-08-30T06:18:47;100707.56;;;11.17;100.00
29935;BME280;19905;53.370;-6.314;2023-08-30T06:21:16;100698.44;;;11.33;100.00
29935;BME280;19905;53.370;-6.314;2023-08-30T06:23:46;100696.41;;;11.36;100.00
29935;BME280;19905;53.370;-6.314;2023-08-30T06:26:15;100697.81;;;11.40;100.00
29935;BME280;19905;53.370;-6.314;2023-08-30T06:28:46;100691.91;;;11.48;100.00
29935;BME280;19905;53.370;-6.314;2023-08-30T06:31:31;100687.81;;;11.55;100.00
29935;BME280;19905;53.370;-6.314;2023-08-30T06:34:00;100692.47;;;11.63;100.00
29935;BME280;19905;53.370;-6.314;2023-08-30T06:36:30;100695.34;;;11.71;100.00
29935;BME280;19905;53.370;-6.314;2023-08-30T06:39:00;100690.28;;;11.79;100.00
29935;BME280;19905;53.370;-6.314;2023-08-30T06:41:37;100693.16;;;11.87;100.00
29935;BME280;19905;53.370;-6.314;2023-08-30T06:44:16;100698.09;;;11.92;100.00
29935;BME280;19905;53.370;-6.314;2023-08-30T06:46:50;100682.75;;;11.95;100.00
29935;BME280;19905;53.370;-6.314;2023-08-30T06:49:19;100678.78;;;12.01;100.00
29935;BME280;19905;53.370;-6.314;2023-08-30T06:51:49;100678.03;;;12.10;100.00
29935;BME280;19905;53.370;-6.314;2023-08-30T06:54:21;100670.78;;;12.12;100.00
29935;BME280;19905;53.370;-6.314;2023-08-30T06:56:57;100667.22;;;12.23;100.00
29935;BME280;19905;53.370;-6.314;2023-08-30T06:59:28;100659.16;;;12.25;100.00
29935;BME280;19905;53.370;-6.314;2023-08-30T07:01:57;100661.22;;;12.21;100.00
29935;BME280;19905;53.370;-6.314;2023-08-30T07:04:29;100658.91;;;12.28;100.00
29935;BME280;19905;53.370;-6.314;2023-08-30T07:07:00;100648.06;;;12.31;100.00
29935;BME280;19905;53.370;-6.314;2023-08-30T07:09:28;100643.34;;;12.34;100.00
29935;BME280;19905;53.370;-6.314;2023-08-30T07:11:59;100642.94;;;12.39;100.00
29935;BME280;19905;53.370;-6.314;2023-08-30T07:14:34;100627.25;;;12.47;100.00
29935;BME280;19905;53.370;-6.314;2023-08-30T07:17:09;100642.03;;;12.50;100.00
29935;BME280;19905;53.370;-6.314;2023-08-30T07:19:39;100643.63;;;12.62;100.00
29935;BME280;19905;53.370;-6.314;2023-08-30T07:22:07;100638.13;;;12.75;100.00
29935;BME280;19905;53.370;-6.314;2023-08-30T07:24:36;100642.34;;;12.87;100.00
29935;BME280;19905;53.370;-6.314;2023-08-30T07:27:05;100638.44;;;12.91;100.00
29935;BME280;19905;53.370;-6.314;2023-08-30T07:29:36;100634.88;;;13.02;100.00
29935;BME280;19905;53.370;-6.314;2023-08-30T07:32:05;100636.16;;;13.07;100.00
29935;BME280;19905;53.370;-6.314;2023-08-30T07:34:34;100630.34;;;13.23;100.00
29935;BME280;19905;53.370;-6.314;2023-08-30T07:39:44;100626.75;;;13.43;100.00
29935;BME280;19905;53.370;-6.314;2023-08-30T07:42:13;100628.16;;;13.47;100.00
29935;BME280;19905;53.370;-6.314;2023-08-30T07:44:43;100628.59;;;13.53;100.00
29935;BME280;19905;53.370;-6.314;2023-08-30T07:47:12;100627.19;;;13.58;100.00
29935;BME280;19905;53.370;-6.314;2023-08-30T07:49:41;100625.09;;;13.62;100.00
29935;BME280;19905;53.370;-6.314;2023-08-30T07:52:09;100616.84;;;13.65;100.00
29935;BME280;19905;53.370;-6.314;2023-08-30T07:54:40;100616.44;;;13.69;100.00
29935;BME280;19905;53.370;-6.314;2023-08-30T07:57:09;100622.31;;;13.73;100.00
29935;BME280;19905;53.370;-6.314;2023-08-30T07:59:38;100624.28;;;13.81;100.00
29935;BME280;19905;53.370;-6.314;2023-08-30T08:02:08;100627.59;;;13.83;100.00
29935;BME280;19905;53.370;-6.314;2023-08-30T08:04:37;100630.69;;;13.88;100.00
29935;BME280;19905;53.370;-6.314;2023-08-30T08:07:05;100621.75;;;13.89;100.00
29935;BME280;19905;53.370;-6.314;2023-08-30T08:09:34;100627.63;;;14.02;100.00
29935;BME280;19905;53.370;-6.314;2023-08-30T08:12:02;100630.56;;;13.99;100.00
29935;BME280;19905;53.370;-6.314;2023-08-30T08:14:31;100628.31;;;14.04;100.00
29935;BME280;19905;53.370;-6.314;2023-08-30T08:16:59;100630.66;;;14.17;100.00
29935;BME280;19905;53.370;-6.314;2023-08-30T08:19:29;100631.78;;;14.14;100.00
29935;BME280;19905;53.370;-6.314;2023-08-30T08:22:00;100628.69;;;14.19;100.00
29935;BME280;19905;53.370;-6.314;2023-08-30T08:24:28;100635.00;;;14.18;100.00
29935;BME280;19905;53.370;-6.314;2023-08-30T08:26:57;100627.38;;;14.42;100.00
29935;BME280;19905;53.370;-6.314;2023-08-30T08:29:26;100629.09;;;14.43;100.00
29935;BME280;19905;53.370;-6.314;2023-08-30T08:31:55;100624.31;;;14.37;100.00
29935;BME280;19905;53.370;-6.314;2023-08-30T08:34:24;100628.16;;;14.25;100.00
29935;BME280;19905;53.370;-6.314;2023-08-30T08:36:54;100627.56;;;14.31;100.00
29935;BME280;19905;53.370;-6.314;2023-08-30T08:39:23;100628.66;;;14.38;100.00
29935;BME280;19905;53.370;-6.314;2023-08-30T08:41:53;100622.06;;;14.42;100.00
29935;BME280;19905;53.370;-6.314;2023-08-30T08:44:22;100616.63;;;14.54;100.00
29935;BME280;19905;53.370;-6.314;2023-08-30T08:46:55;100610.63;;;14.79;100.00
29935;BME280;19905;53.370;-6.314;2023-08-30T08:49:24;100616.56;;;15.00;100.00
29935;BME280;19905;53.370;-6.314;2023-08-30T08:51:56;100614.69;;;15.11;100.00
29935;BME280;19905;53.370;-6.314;2023-08-30T08:54:25;100600.38;;;15.12;100.00
29935;BME280;19905;53.370;-6.314;2023-08-30T08:56:55;100610.09;;;15.31;100.00
29935;BME280;19905;53.370;-6.314;2023-08-30T08:59:24;100613.50;;;15.23;100.00
29935;BME280;19905;53.370;-6.314;2023-08-30T09:01:53;100601.66;;;15.35;100.00
29935;BME280;19905;53.370;-6.314;2023-08-30T09:04:22;100605.53;;;15.41;100.00
29935;BME280;19905;53.370;-6.314;2023-08-30T09:06:52;100609.56;;;15.45;100.00
29935;BME280;19905;53.370;-6.314;2023-08-30T09:09:22;100610.63;;;15.52;100.00
29935;BME280;19905;53.370;-6.314;2023-08-30T09:11:51;100602.72;;;15.42;100.00
29935;BME280;19905;53.370;-6.314;2023-08-30T09:14:20;100603.31;;;15.36;100.00
29935;BME280;19905;53.370;-6.314;2023-08-30T09:16:55;100606.88;;;15.27;100.00
29935;BME280;19905;53.370;-6.314;2023-08-30T09:19:25;100611.19;;;15.10;100.00
29935;BME280;19905;53.370;-6.314;2023-08-30T09:21:53;100605.84;;;15.10;100.00
29935;BME280;19905;53.370;-6.314;2023-08-30T09:24:24;100606.34;;;15.23;100.00
29935;BME280;19905;53.370;-6.314;2023-08-30T09:26:54;100610.03;;;15.40;100.00
29935;BME280;19905;53.370;-6.314;2023-08-30T09:29:23;100608.47;;;15.38;100.00
29935;BME280;19905;53.370;-6.314;2023-08-30T09:31:52;100612.22;;;15.27;100.00
29935;BME280;19905;53.370;-6.314;2023-08-30T09:34:22;100609.00;;;15.23;100.00
29935;BME280;19905;53.370;-6.314;2023-08-30T09:36:51;100596.91;;;15.29;100.00
29935;BME280;19905;53.370;-6.314;2023-08-30T09:39:21;100614.81;;;15.37;100.00
29935;BME280;19905;53.370;-6.314;2023-08-30T09:41:54;100606.91;;;15.63;100.00
29935;BME280;19905;53.370;-6.314;2023-08-30T09:44:23;100602.88;;;15.59;100.00
29935;BME280;19905;53.370;-6.314;2023-08-30T09:46:54;100610.03;;;15.40;100.00
29935;BME280;19905;53.370;-6.314;2023-08-30T09:49:26;100615.09;;;15.34;100.00
29935;BME280;19905;53.370;-6.314;2023-08-30T09:51:54;100611.91;;;15.48;100.00
29935;BME280;19905;53.370;-6.314;2023-08-30T09:54:24;100618.53;;;15.62;100.00
29935;BME280;19905;53.370;-6.314;2023-08-30T09:57:07;100618.66;;;15.70;100.00
29935;BME280;19905;53.370;-6.314;2023-08-30T09:59:36;100615.94;;;16.06;100.00
29935;BME280;19905;53.370;-6.314;2023-08-30T10:02:06;100613.34;;;16.14;100.00
29935;BME280;19905;53.370;-6.314;2023-08-30T10:04:38;100620.75;;;16.02;100.00
29935;BME280;19905;53.370;-6.314;2023-08-30T10:07:09;100610.47;;;15.89;100.00
29935;BME280;19905;53.370;-6.314;2023-08-30T10:09:38;100614.84;;;16.16;100.00
29935;BME280;19905;53.370;-6.314;2023-08-30T10:12:29;100617.94;;;16.30;100.00
29935;BME280;19905;53.370;-6.314;2023-08-30T10:14:59;100628.81;;;16.10;100.00
29935;BME280;19905;53.370;-6.314;2023-08-30T10:17:31;100613.88;;;16.17;100.00
29935;BME280;19905;53.370;-6.314;2023-08-30T10:20:04;100613.34;;;16.14;100.00
29935;BME280;19905;53.370;-6.314;2023-08-30T10:22:36;100607.50;;;16.10;100.00
29935;BME280;19905;53.370;-6.314;2023-08-30T10:25:09;100606.75;;;16.00;100.00
29935;BME280;19905;53.370;-6.314;2023-08-30T10:27:43;100613.38;;;15.96;100.00
29935;BME280;19905;53.370;-6.314;2023-08-30T10:30:13;100610.13;;;16.28;100.00
29935;BME280;19905;53.370;-6.314;2023-08-30T10:32:43;100608.28;;;16.55;100.00
29935;BME280;19905;53.370;-6.314;2023-08-30T10:35:14;100604.72;;;16.72;100.00
29935;BME280;19905;53.370;-6.314;2023-08-30T10:37:53;100598.47;;;16.89;100.00
29935;BME280;19905;53.370;-6.314;2023-08-30T10:40:23;100598.25;;;16.74;100.00
29935;BME280;19905;53.370;-6.314;2023-08-30T10:43:03;100601.06;;;16.73;100.00
29935;BME280;19905;53.370;-6.314;2023-08-30T10:45:32;100601.63;;;16.85;100.00
29935;BME280;19905;53.370;-6.314;2023-08-30T10:48:00;100601.53;;;17.02;100.00
29935;BME280;19905;53.370;-6.314;2023-08-30T10:50:32;100590.66;;;16.96;100.00
29935;BME280;19905;53.370;-6.314;2023-08-30T10:53:02;100591.47;;;16.88;100.00
29935;BME280;19905;53.370;-6.314;2023-08-30T10:55:33;100591.75;;;17.19;100.00
29935;BME280;19905;53.370;-6.314;2023-08-30T10:58:03;100596.59;;;17.40;100.00
29935;BME280;19905;53.370;-6.314;2023-08-30T11:00:32;100587.13;;;17.46;100.00
29935;BME280;19905;53.370;-6.314;2023-08-30T11:03:03;100586.13;;;17.63;100.00
29935;BME280;19905;53.370;-6.314;2023-08-30T11:05:32;100576.94;;;17.58;100.00
29935;BME280;19905;53.370;-6.314;2023-08-30T11:08:01;100590.34;;;17.07;100.00
29935;BME280;19905;53.370;-6.314;2023-08-30T11:10:30;100573.81;;;16.95;100.00
29935;BME280;19905;53.370;-6.314;2023-08-30T11:13:02;100582.34;;;16.65;100.00
29935;BME280;19905;53.370;-6.314;2023-08-30T11:15:31;100586.91;;;16.72;100.00
29935;BME280;19905;53.370;-6.314;2023-08-30T11:18:03;100591.00;;;16.67;100.00
29935;BME280;19905;53.370;-6.314;2023-08-30T11:20:32;100591.38;;;16.72;100.00
29935;BME280;19905;53.370;-6.314;2023-08-30T11:23:02;100594.31;;;16.87;100.00
29935;BME280;19905;53.370;-6.314;2023-08-30T11:25:31;100584.50;;;17.03;100.00
29935;BME280;19905;53.370;-6.314;2023-08-30T11:28:05;100579.81;;;16.97;100.00
29935;BME280;19905;53.370;-6.314;2023-08-30T11:30:33;100587.78;;;16.89;100.00
29935;BME280;19905;53.370;-6.314;2023-08-30T11:33:07;100583.53;;;17.13;100.00
29935;BME280;19905;53.370;-6.314;2023-08-30T11:35:39;100583.75;;;17.36;100.00
29935;BME280;19905;53.370;-6.314;2023-08-30T11:38:09;100580.09;;;17.45;100.00
29935;BME280;19905;53.370;-6.314;2023-08-30T11:40:38;100579.38;;;17.10;100.00
29935;BME280;19905;53.370;-6.314;2023-08-30T11:43:08;100575.69;;;17.11;100.00
29935;BME280;19905;53.370;-6.314;2023-08-30T11:45:38;100581.41;;;17.24;100.00
29935;BME280;19905;53.370;-6.314;2023-08-30T11:48:06;100576.41;;;17.30;100.00
29935;BME280;19905;53.370;-6.314;2023-08-30T11:50:36;100565.56;;;17.23;100.00
29935;BME280;19905;53.370;-6.314;2023-08-30T11:53:14;100568.38;;;17.21;100.00
29935;BME280;19905;53.370;-6.314;2023-08-30T11:55:43;100571.53;;;17.17;100.00
29935;BME280;19905;53.370;-6.314;2023-08-30T11:58:13;100565.34;;;17.16;100.00
29935;BME280;19905;53.370;-6.314;2023-08-30T12:00:42;100569.56;;;17.35;100.00
29935;BME280;19905;53.370;-6.314;2023-08-30T12:03:13;100569.25;;;17.54;100.00
29935;BME280;19905;53.370;-6.314;2023-08-30T12:05:46;100570.75;;;17.49;100.00
29935;BME280;19905;53.370;-6.314;2023-08-30T12:08:19;100568.91;;;17.49;100.00
29935;BME280;19905;53.370;-6.314;2023-08-30T12:10:48;100554.56;;;18.08;100.00
29935;BME280;19905;53.370;-6.314;2023-08-30T12:13:22;100562.91;;;18.21;100.00
29935;BME280;19905;53.370;-6.314;2023-08-30T12:15:51;100564.22;;;18.33;100.00
29935;BME280;19905;53.370;-6.314;2023-08-30T12:18:24;100552.53;;;18.18;100.00
29935;BME280;19905;53.370;-6.314;2023-08-30T12:20:58;100554.25;;;18.02;100.00
29935;BME280;19905;53.370;-6.314;2023-08-30T12:23:28;100556.09;;;18.02;100.00
29935;BME280;19905;53.370;-6.314;2023-08-30T12:26:02;100562.44;;;17.93;100.00
29935;BME280;19905;53.370;-6.314;2023-08-30T12:28:42;100551.25;;;17.97;100.00
29935;BME280;19905;53.370;-6.314;2023-08-30T12:31:11;100555.91;;;18.03;100.00
29935;BME280;19905;53.370;-6.314;2023-08-30T12:33:39;100555.56;;;18.15;100.00
29935;BME280;19905;53.370;-6.314;2023-08-30T12:36:08;100552.22;;;18.21;100.00
29935;BME280;19905;53.370;-6.314;2023-08-30T12:38:39;100558.91;;;18.00;100.00
29935;BME280;19905;53.370;-6.314;2023-08-30T12:41:08;100557.91;;;18.10;100.00
29935;BME280;19905;53.370;-6.314;2023-08-30T12:43:36;100561.44;;;17.94;100.00
29935;BME280;19905;53.370;-6.314;2023-08-30T12:46:06;100560.59;;;18.01;100.00
29935;BME280;19905;53.370;-6.314;2023-08-30T12:48:35;100554.91;;;18.04;100.00
29935;BME280;19905;53.370;-6.314;2023-08-30T12:51:03;100553.41;;;18.02;100.00